RJAA O M0100
ILS RWY34L LDG RWY 34L DEP RWY 34R DEP FREQ 124.2. OBSERVE GEAR DOWN OPS PROC ON FNL. M 170100Z 02007KT 330V050 25KM FEW010ST SCT015CU BKN040SC 17/15 Q1015/A2997= Q/TWO NINE NINE SEVEN STP

TAF RJAA 170046Z 1700/1806 04005KT 9999 -RA FEW008 BKN015
TEMPO 1700/1706 FEW005 BKN008
TEMPO 1718/1721 2000 BR FEW001 BKN003